createdAt,value
2017-07-25T00:02:17.982Z,23.00
2017-07-25T00:04:46.176Z,21.83
2017-07-25T00:07:12.954Z,26.50
2017-07-25T00:09:39.584Z,22.37
2017-07-25T00:12:06.235Z,23.80
2017-07-25T00:14:32.895Z,23.90
2017-07-25T00:16:59.519Z,23.80
2017-07-25T00:19:26.143Z,23.63
2017-07-25T00:21:52.794Z,23.97
2017-07-25T00:24:19.460Z,24.03
2017-07-25T00:26:46.086Z,25.30
2017-07-25T00:29:15.236Z,23.93
2017-07-25T00:31:44.260Z,24.83
2017-07-25T00:34:13.045Z,22.23
2017-07-25T00:36:40.311Z,25.77
2017-07-25T00:39:08.699Z,22.90
2017-07-25T00:41:35.374Z,23.47
2017-07-25T00:44:02.003Z,26.60
2017-07-25T00:46:29.866Z,28.70
2017-07-25T00:48:56.507Z,24.47
2017-07-25T00:51:25.260Z,25.23
2017-07-25T00:53:53.497Z,26.10
2017-07-25T00:56:21.202Z,24.73
2017-07-25T00:58:47.868Z,26.63
2017-07-25T01:01:14.494Z,29.43
2017-07-25T01:03:41.211Z,24.57
2017-07-25T01:06:08.206Z,28.00
2017-07-25T01:08:34.861Z,26.50
2017-07-25T01:11:02.110Z,27.93
2017-07-25T01:13:33.513Z,26.70
2017-07-25T01:16:00.656Z,25.37
2017-07-25T01:18:28.015Z,27.37
2017-07-25T01:20:54.679Z,26.60
2017-07-25T01:23:21.300Z,27.47
2017-07-25T01:25:47.958Z,28.43
2017-07-25T01:28:14.603Z,27.10
2017-07-25T01:30:41.239Z,27.40
2017-07-25T01:33:07.875Z,27.90
2017-07-25T01:35:34.528Z,27.77
2017-07-25T01:38:01.159Z,25.63
2017-07-25T01:40:27.811Z,28.70
2017-07-25T01:42:54.432Z,27.47
2017-07-25T01:45:21.056Z,27.47
2017-07-25T01:47:47.719Z,28.43
2017-07-25T01:50:14.336Z,30.80
2017-07-25T01:52:40.979Z,29.50
2017-07-25T01:55:07.597Z,30.67
2017-07-25T01:57:34.256Z,29.50
2017-07-25T02:00:00.886Z,30.93
2017-07-25T02:02:27.521Z,29.97
2017-07-25T02:04:54.156Z,34.00
2017-07-25T02:07:20.772Z,32.53
2017-07-25T02:09:47.423Z,30.30
2017-07-25T02:12:14.067Z,30.03
2017-07-25T02:14:40.698Z,31.53
2017-07-25T02:17:07.349Z,30.50
2017-07-25T02:19:33.964Z,29.27
2017-07-25T02:22:00.590Z,29.60
2017-07-25T02:24:27.207Z,31.23
2017-07-25T02:26:53.854Z,32.57
2017-07-25T02:31:58.392Z,35.50
2017-07-25T02:34:25.058Z,33.47
2017-07-25T02:36:52.995Z,31.30
2017-07-25T02:39:19.617Z,31.77
2017-07-25T02:41:47.000Z,31.90
2017-07-25T02:44:14.003Z,30.63
2017-07-25T02:46:42.155Z,28.93
2017-07-25T02:49:10.720Z,30.27
2017-07-25T02:51:37.400Z,32.67
2017-07-25T02:54:06.299Z,28.07
2017-07-25T02:56:33.162Z,27.60
2017-07-25T02:59:01.471Z,32.23
2017-07-25T03:01:30.436Z,30.93
2017-07-25T03:03:59.798Z,29.03
2017-07-25T03:06:28.658Z,31.30
2017-07-25T03:08:56.380Z,28.57
2017-07-25T03:11:24.281Z,30.27
2017-07-25T03:13:50.985Z,28.23
2017-07-25T03:16:17.638Z,27.70
2017-07-25T03:18:44.284Z,28.40
2017-07-25T03:21:10.904Z,29.57
2017-07-25T03:23:44.750Z,28.70
2017-07-25T03:26:14.539Z,27.20
2017-07-25T03:28:43.446Z,30.10
2017-07-25T03:31:14.927Z,26.50
2017-07-25T03:33:43.819Z,28.03
2017-07-25T03:36:13.855Z,25.77
2017-07-25T03:38:41.300Z,25.70
2017-07-25T03:41:09.510Z,24.20
2017-07-25T03:43:39.130Z,23.43
2017-07-25T03:46:08.882Z,24.43
2017-07-25T03:48:36.166Z,28.00
2017-07-25T03:51:05.127Z,28.00
2017-07-25T03:53:36.433Z,27.47
2017-07-25T03:56:03.786Z,25.20
2017-07-25T03:58:32.173Z,26.53
2017-07-25T04:01:00.223Z,27.13
2017-07-25T04:03:29.406Z,22.20
2017-07-25T04:05:59.769Z,25.67
2017-07-25T04:08:28.268Z,21.67
2017-07-25T04:10:55.520Z,18.77
2017-07-25T04:13:24.808Z,19.60
2017-07-25T04:15:53.145Z,17.73
2017-07-25T04:18:20.611Z,19.30
2017-07-25T04:20:49.975Z,19.77
2017-07-25T04:23:17.206Z,21.67
2017-07-25T04:25:45.503Z,20.70
2017-07-25T04:28:16.687Z,22.53
2017-07-25T04:30:47.931Z,21.90
2017-07-25T04:33:17.945Z,22.00
2017-07-25T04:35:44.898Z,23.67
2017-07-25T04:38:15.131Z,22.97
2017-07-25T04:40:43.479Z,23.60
2017-07-25T04:43:12.586Z,21.60
2017-07-25T04:45:43.358Z,22.80
2017-07-25T04:48:12.540Z,25.87
2017-07-25T04:50:40.776Z,23.93
2017-07-25T04:53:09.524Z,25.13
2017-07-25T04:55:37.822Z,27.87
2017-07-25T04:58:06.182Z,24.97
2017-07-25T05:00:34.047Z,28.17
2017-07-25T05:03:02.912Z,29.90
2017-07-25T05:05:30.543Z,27.77
2017-07-25T05:08:01.494Z,27.47
2017-07-25T05:10:32.959Z,27.60
2017-07-25T05:13:01.950Z,28.27
2017-07-25T05:15:30.428Z,26.27
2017-07-25T05:18:05.638Z,24.07
2017-07-25T05:20:33.394Z,22.30
2017-07-25T05:23:01.492Z,22.23
2017-07-25T05:25:30.056Z,20.77
2017-07-25T05:27:57.343Z,20.30
2017-07-25T05:30:26.714Z,22.07
2017-07-25T05:32:54.171Z,23.50
2017-07-25T05:35:22.425Z,25.20
2017-07-25T05:37:50.560Z,26.40
2017-07-25T05:40:17.516Z,26.77
2017-07-25T05:42:45.675Z,25.30
2017-07-25T05:45:13.858Z,26.17
2017-07-25T05:47:42.197Z,27.20
2017-07-25T05:50:14.492Z,28.50
2017-07-25T05:52:42.420Z,27.40
2017-07-25T05:55:11.361Z,24.97
2017-07-25T05:57:42.559Z,24.07
2017-07-25T06:00:11.797Z,25.53
2017-07-25T06:02:41.003Z,26.03
2017-07-25T06:05:10.755Z,27.83
2017-07-25T06:07:40.288Z,28.40
2017-07-25T06:10:08.975Z,27.00
2017-07-25T06:12:38.160Z,26.20
2017-07-25T06:15:06.016Z,24.50
2017-07-25T06:17:34.050Z,22.10
2017-07-25T06:20:00.971Z,26.70
2017-07-25T06:22:30.107Z,23.37
2017-07-25T06:24:56.719Z,23.50
2017-07-25T06:27:23.949Z,22.50
2017-07-25T06:29:50.599Z,22.67
2017-07-25T06:32:17.247Z,22.20
2017-07-25T06:34:43.875Z,23.43
2017-07-25T06:37:10.531Z,18.10
2017-07-25T06:39:39.834Z,20.60
2017-07-25T06:42:09.576Z,18.90
2017-07-25T06:44:36.849Z,18.10
2017-07-25T06:47:03.521Z,18.53
2017-07-25T06:49:32.411Z,18.73
2017-07-25T06:51:59.049Z,18.93
2017-07-25T06:54:25.770Z,19.60
2017-07-25T06:56:52.403Z,19.50
2017-07-25T06:59:22.307Z,19.63
2017-07-25T07:01:48.921Z,19.83
2017-07-25T07:04:15.574Z,19.20
2017-07-25T07:06:42.200Z,19.50
2017-07-25T07:09:08.826Z,17.70
2017-07-25T07:11:35.472Z,19.73
2017-07-25T07:14:02.147Z,18.20
2017-07-25T07:16:28.776Z,19.03
2017-07-25T07:18:55.422Z,16.97
2017-07-25T07:21:22.036Z,17.27
2017-07-25T07:23:48.686Z,16.07
2017-07-25T07:26:15.332Z,15.90
2017-07-25T07:28:42.001Z,15.80
2017-07-25T07:31:08.613Z,16.30
2017-07-25T07:33:35.262Z,14.67
2017-07-25T07:36:01.903Z,14.20
2017-07-25T07:38:28.556Z,14.63
2017-07-25T07:40:55.171Z,15.20
2017-07-25T07:43:21.822Z,13.90
2017-07-25T07:45:48.477Z,14.47
2017-07-25T07:48:15.117Z,15.47
2017-07-25T07:50:41.784Z,14.20
2017-07-25T07:53:08.417Z,11.93
2017-07-25T07:55:35.073Z,13.87
2017-07-25T07:58:01.741Z,14.00
2017-07-25T08:00:28.380Z,13.00
2017-07-25T08:02:55.004Z,11.83
2017-07-25T08:05:21.642Z,9.27
2017-07-25T08:07:48.271Z,9.20
2017-07-25T08:10:14.941Z,8.50
2017-07-25T08:12:41.573Z,8.90
2017-07-25T08:15:08.197Z,8.57
2017-07-25T08:17:34.859Z,9.30
2017-07-25T08:20:01.516Z,7.93
2017-07-25T08:22:28.147Z,8.43
2017-07-25T08:24:54.787Z,7.80
2017-07-25T08:27:21.420Z,8.13
2017-07-25T08:29:48.063Z,6.73
2017-07-25T08:32:14.684Z,6.83
2017-07-25T08:34:41.332Z,8.53
2017-07-25T08:37:07.975Z,8.10
2017-07-25T08:39:34.632Z,9.03
2017-07-25T08:42:01.247Z,6.63
2017-07-25T08:44:28.345Z,8.60
2017-07-25T08:46:55.002Z,5.73
2017-07-25T08:49:34.631Z,5.10
2017-07-25T08:52:01.430Z,4.93
2017-07-25T08:54:28.061Z,3.93
2017-07-25T08:56:55.528Z,4.00
2017-07-25T08:59:23.162Z,4.00
2017-07-25T09:01:49.860Z,3.20
2017-07-25T09:04:16.518Z,3.90
2017-07-25T09:06:43.945Z,3.60
2017-07-25T09:09:10.613Z,4.00
2017-07-25T09:11:37.326Z,3.60
2017-07-25T09:14:04.016Z,3.47
2017-07-25T09:16:31.251Z,4.10
2017-07-25T09:18:57.896Z,3.60
2017-07-25T09:21:24.557Z,3.00
2017-07-25T09:23:51.224Z,3.00
2017-07-25T09:26:17.872Z,3.00
2017-07-25T09:28:44.508Z,3.17
2017-07-25T09:31:11.165Z,3.37
2017-07-25T09:33:37.777Z,3.00
2017-07-25T09:36:04.404Z,2.50
2017-07-25T09:38:31.072Z,2.50
2017-07-25T09:40:57.736Z,2.60
2017-07-25T09:43:24.354Z,2.10
2017-07-25T09:45:50.999Z,2.53
2017-07-25T09:48:17.660Z,2.10
2017-07-25T09:50:44.296Z,2.90
2017-07-25T09:53:10.939Z,2.60
2017-07-25T09:55:37.559Z,2.47
2017-07-25T09:58:04.191Z,2.37
2017-07-25T10:00:30.829Z,1.90
2017-07-25T10:02:57.454Z,2.23
2017-07-25T10:05:24.080Z,1.97
2017-07-25T10:07:50.731Z,1.33
2017-07-25T10:10:17.360Z,1.70
2017-07-25T10:12:43.985Z,1.80
2017-07-25T10:15:12.476Z,1.40
2017-07-25T10:17:39.098Z,1.70
2017-07-25T10:20:06.325Z,1.70
2017-07-25T10:22:32.932Z,1.60
2017-07-25T10:24:59.548Z,1.70
2017-07-25T10:27:26.191Z,1.90
2017-07-25T10:29:52.828Z,2.10
2017-07-25T10:32:22.154Z,1.80
2017-07-25T10:34:50.110Z,2.17
2017-07-25T10:37:18.839Z,1.80
2017-07-25T10:39:47.842Z,1.90
2017-07-25T10:42:14.492Z,1.40
2017-07-25T10:44:41.128Z,2.13
2017-07-25T10:47:07.758Z,1.90
2017-07-25T10:49:34.383Z,3.20
2017-07-25T10:52:04.029Z,1.73
2017-07-25T10:54:31.393Z,1.47
2017-07-25T10:57:00.443Z,1.70
2017-07-25T10:59:29.694Z,2.27
2017-07-25T11:01:59.264Z,2.23
2017-07-25T11:04:31.555Z,2.10
2017-07-25T11:06:59.993Z,2.23
2017-07-25T11:09:27.289Z,1.50
2017-07-25T11:11:56.589Z,1.67
2017-07-25T11:14:24.743Z,1.63
2017-07-25T11:16:52.347Z,2.13
2017-07-25T11:19:21.471Z,4.50
2017-07-25T11:21:51.199Z,3.40
2017-07-25T11:24:19.415Z,3.57
2017-07-25T11:26:48.629Z,3.07
2017-07-25T11:29:15.251Z,2.97
2017-07-25T11:31:46.524Z,6.50
2017-07-25T11:34:15.446Z,4.90
2017-07-25T11:36:43.098Z,3.53
2017-07-25T11:39:10.280Z,3.70
2017-07-25T11:41:36.924Z,3.60
2017-07-25T11:44:04.212Z,3.90
2017-07-25T11:46:30.878Z,3.77
2017-07-25T11:48:57.533Z,3.97
2017-07-25T11:51:24.179Z,3.77
2017-07-25T11:53:50.836Z,6.20
2017-07-25T11:56:17.499Z,3.43
2017-07-25T11:58:44.116Z,3.53
2017-07-25T12:01:10.762Z,3.03
2017-07-25T12:03:37.394Z,3.40
2017-07-25T12:06:04.481Z,2.83
2017-07-25T12:08:31.134Z,4.53
2017-07-25T12:10:57.770Z,3.87
2017-07-25T12:13:24.392Z,4.40
2017-07-25T12:15:51.056Z,5.10
2017-07-25T12:18:17.691Z,3.70
2017-07-25T12:21:02.007Z,3.90
2017-07-25T12:23:28.661Z,4.07
2017-07-25T12:25:55.280Z,4.40
2017-07-25T12:28:22.613Z,4.90
2017-07-25T12:30:49.240Z,3.90
2017-07-25T12:33:16.567Z,5.07
2017-07-25T12:35:43.208Z,3.90
2017-07-25T12:38:09.844Z,3.20
2017-07-25T12:40:36.452Z,3.00
2017-07-25T12:43:03.090Z,3.87
2017-07-25T12:45:29.728Z,3.13
2017-07-25T12:47:56.347Z,3.20
2017-07-25T12:50:22.989Z,4.03
2017-07-25T12:52:49.619Z,3.87
2017-07-25T12:55:16.288Z,4.20
2017-07-25T12:57:42.910Z,4.43
2017-07-25T13:00:09.540Z,2.80
2017-07-25T13:02:36.212Z,3.10
2017-07-25T13:05:03.204Z,3.83
2017-07-25T13:07:29.820Z,4.57
2017-07-25T13:09:56.451Z,4.10
2017-07-25T13:12:23.107Z,4.47
2017-07-25T13:14:49.755Z,3.73
2017-07-25T13:17:16.394Z,3.90
2017-07-25T13:19:43.028Z,4.30
2017-07-25T13:22:09.689Z,3.83
2017-07-25T13:24:36.343Z,3.70
2017-07-25T13:27:02.962Z,4.03
2017-07-25T13:29:29.593Z,5.57
2017-07-25T13:31:56.211Z,5.10
2017-07-25T13:34:22.847Z,5.20
2017-07-25T13:36:49.516Z,5.67
2017-07-25T13:39:16.139Z,4.30
2017-07-25T13:41:42.786Z,5.33
2017-07-25T13:44:09.415Z,5.97
2017-07-25T13:46:36.068Z,6.33
2017-07-25T13:49:02.683Z,6.40
2017-07-25T13:51:29.310Z,6.30
2017-07-25T13:53:55.946Z,6.97
2017-07-25T13:56:22.595Z,7.80
2017-07-25T13:58:50.088Z,7.97
2017-07-25T14:01:16.720Z,8.00
2017-07-25T14:03:43.351Z,7.47
2017-07-25T14:06:11.122Z,6.10
2017-07-25T14:08:37.735Z,6.80
2017-07-25T14:11:04.382Z,6.00
2017-07-25T14:13:32.293Z,14.77
2017-07-25T14:15:58.931Z,12.07
2017-07-25T14:18:25.588Z,10.07
2017-07-25T14:20:52.258Z,16.80
2017-07-25T14:23:21.688Z,24.93
2017-07-25T14:25:52.143Z,25.67
2017-07-25T14:28:20.032Z,26.40
2017-07-25T14:30:48.654Z,18.50
2017-07-25T14:33:18.351Z,10.57
2017-07-25T14:35:47.245Z,9.63
2017-07-25T14:38:17.015Z,8.47
2017-07-25T14:40:45.183Z,7.90
2017-07-25T14:43:12.926Z,9.73
2017-07-25T14:45:42.100Z,9.80
2017-07-25T14:48:12.106Z,10.07
2017-07-25T14:50:40.972Z,14.00
2017-07-25T14:53:09.909Z,16.53
2017-07-25T14:55:38.200Z,22.43
2017-07-25T14:58:08.866Z,23.47
2017-07-25T15:00:37.419Z,23.30
2017-07-25T15:03:06.298Z,22.03
2017-07-25T15:05:33.155Z,22.83
2017-07-25T15:07:59.778Z,19.50
2017-07-25T15:10:26.862Z,16.27
2017-07-25T15:12:53.507Z,19.03
2017-07-25T15:15:23.879Z,16.27
2017-07-25T15:17:53.483Z,12.30
2017-07-25T15:20:22.694Z,15.10
2017-07-25T15:22:52.597Z,18.00
2017-07-25T15:25:20.742Z,20.77
2017-07-25T15:27:49.800Z,12.33
2017-07-25T15:30:16.422Z,10.70
2017-07-25T15:32:45.958Z,10.10
2017-07-25T15:35:13.530Z,10.03
2017-07-25T15:37:40.186Z,8.30
2017-07-25T15:40:06.822Z,7.90
2017-07-25T15:42:33.498Z,10.33
2017-07-25T15:45:02.587Z,10.10
2017-07-25T15:47:30.071Z,8.53
2017-07-25T15:49:57.455Z,8.00
2017-07-25T15:52:27.076Z,9.73
2017-07-25T15:54:53.710Z,9.03
2017-07-25T15:57:20.337Z,8.10
2017-07-25T15:59:48.414Z,9.50
2017-07-25T16:02:15.442Z,9.17
2017-07-25T16:04:42.074Z,10.30
2017-07-25T16:07:08.721Z,10.37
2017-07-25T16:09:35.612Z,14.33
2017-07-25T16:12:02.251Z,18.60
2017-07-25T16:14:29.415Z,13.57
2017-07-25T16:16:56.083Z,18.33
2017-07-25T16:19:22.703Z,18.40
2017-07-25T16:21:49.328Z,17.80
2017-07-25T16:24:15.978Z,13.50
2017-07-25T16:26:42.609Z,14.93
2017-07-25T16:29:09.272Z,17.60
2017-07-25T16:31:35.926Z,22.43
2017-07-25T16:34:02.544Z,21.93
2017-07-25T16:36:29.195Z,20.80
2017-07-25T16:38:55.814Z,21.70
2017-07-25T16:41:22.470Z,21.90
2017-07-25T16:43:51.581Z,18.40
2017-07-25T16:46:18.222Z,23.37
2017-07-25T16:48:45.708Z,15.77
2017-07-25T16:51:12.359Z,14.17
2017-07-25T16:53:39.003Z,13.93
2017-07-25T16:56:05.676Z,14.57
2017-07-25T16:58:32.597Z,12.60
2017-07-25T17:00:59.249Z,10.07
2017-07-25T17:03:25.934Z,8.77
2017-07-25T17:05:52.563Z,9.10
2017-07-25T17:08:19.210Z,10.60
2017-07-25T17:10:46.783Z,23.50
2017-07-25T17:13:13.408Z,22.30
2017-07-25T17:15:40.224Z,17.40
2017-07-25T17:18:06.868Z,13.10
2017-07-25T17:20:33.508Z,10.80
2017-07-25T17:23:00.166Z,8.60
2017-07-25T17:25:26.840Z,7.57
2017-07-25T17:27:53.459Z,9.37
2017-07-25T17:30:20.099Z,8.07
2017-07-25T17:32:46.777Z,8.43
2017-07-25T17:35:13.415Z,8.83
2017-07-25T17:37:40.066Z,8.80
2017-07-25T17:40:06.695Z,8.07
2017-07-25T17:42:33.351Z,8.30
2017-07-25T17:44:59.980Z,8.50
2017-07-25T17:47:26.657Z,8.83
2017-07-25T17:49:53.299Z,9.10
2017-07-25T17:52:19.943Z,7.60
2017-07-25T17:54:46.563Z,8.30
2017-07-25T17:57:13.204Z,7.53
2017-07-25T17:59:39.836Z,9.30
2017-07-25T18:02:06.489Z,8.43
2017-07-25T18:04:33.234Z,9.13
2017-07-25T18:06:59.883Z,9.50
2017-07-25T18:09:26.518Z,10.00
2017-07-25T18:11:53.191Z,11.37
2017-07-25T18:14:19.835Z,9.37
2017-07-25T18:16:46.479Z,10.50
2017-07-25T18:19:13.143Z,10.70
2017-07-25T18:21:39.788Z,9.87
2017-07-25T18:24:06.431Z,10.37
2017-07-25T18:26:33.052Z,10.30
2017-07-25T18:28:59.709Z,10.30
2017-07-25T18:31:26.356Z,10.30
2017-07-25T18:33:53.015Z,10.97
2017-07-25T18:36:19.637Z,10.17
2017-07-25T18:38:46.281Z,10.40
2017-07-25T18:41:12.944Z,10.07
2017-07-25T18:43:39.571Z,10.10
2017-07-25T18:46:06.218Z,11.03
2017-07-25T18:48:33.483Z,9.50
2017-07-25T18:51:00.119Z,8.67
2017-07-25T18:53:26.755Z,9.27
2017-07-25T18:55:53.388Z,8.73
2017-07-25T18:58:20.032Z,9.70
2017-07-25T19:00:46.691Z,9.00
2017-07-25T19:03:14.142Z,8.03
2017-07-25T19:05:40.788Z,10.03
2017-07-25T19:08:08.686Z,7.93
2017-07-25T19:10:35.333Z,7.10
2017-07-25T19:13:02.147Z,7.63
2017-07-25T19:15:28.910Z,7.50
2017-07-25T19:17:55.821Z,8.03
2017-07-25T19:20:22.492Z,8.27
2017-07-25T19:22:49.107Z,9.30
2017-07-25T19:25:16.044Z,9.97
2017-07-25T19:27:45.243Z,9.00
2017-07-25T19:30:12.813Z,7.40
2017-07-25T19:32:39.484Z,7.73
2017-07-25T19:35:06.109Z,6.97
2017-07-25T19:37:33.211Z,8.30
2017-07-25T19:40:00.369Z,8.67
2017-07-25T19:42:26.993Z,7.37
2017-07-25T19:44:53.939Z,8.27
2017-07-25T19:47:24.893Z,7.20
2017-07-25T19:49:52.919Z,7.67
2017-07-25T19:52:22.446Z,9.73
2017-07-25T19:54:50.311Z,7.37
2017-07-25T19:57:18.530Z,7.87
2017-07-25T19:59:46.579Z,7.60
2017-07-25T20:02:18.480Z,7.17
2017-07-25T20:04:45.212Z,8.30
2017-07-25T20:07:12.979Z,8.17
2017-07-25T20:09:39.648Z,7.73
2017-07-25T20:12:06.997Z,8.10
2017-07-25T20:14:33.684Z,8.90
2017-07-25T20:17:00.352Z,7.73
2017-07-25T20:19:27.097Z,8.40
2017-07-25T20:21:53.739Z,7.63
2017-07-25T20:24:20.357Z,9.97
2017-07-25T20:26:49.532Z,8.93
2017-07-25T20:29:16.182Z,9.97
2017-07-25T20:31:45.148Z,8.97
2017-07-25T20:34:13.772Z,9.27
2017-07-25T20:36:41.219Z,9.63
2017-07-25T20:39:07.855Z,9.40
2017-07-25T20:41:34.535Z,7.97
2017-07-25T20:44:01.169Z,8.97
2017-07-25T20:46:27.828Z,9.63
2017-07-25T20:48:54.445Z,7.80
2017-07-25T20:51:21.100Z,8.40
2017-07-25T20:53:47.724Z,8.73
2017-07-25T20:56:14.333Z,8.87
2017-07-25T20:58:40.975Z,8.77
2017-07-25T21:01:07.603Z,9.57
2017-07-25T21:03:34.233Z,9.97
2017-07-25T21:06:00.880Z,8.83
2017-07-25T21:08:27.544Z,8.50
2017-07-25T21:10:54.192Z,8.40
2017-07-25T21:13:20.851Z,8.20
2017-07-25T21:15:47.475Z,8.50
2017-07-25T21:18:14.317Z,8.30
2017-07-25T21:20:40.971Z,9.50
2017-07-25T21:23:07.582Z,8.57
2017-07-25T21:25:34.250Z,10.57
2017-07-25T21:28:00.880Z,7.97
2017-07-25T21:30:27.543Z,9.20
2017-07-25T21:32:54.185Z,9.50
2017-07-25T21:35:20.855Z,9.20
2017-07-25T21:37:47.503Z,10.43
2017-07-25T21:40:17.074Z,9.10
2017-07-25T21:42:43.701Z,9.40
2017-07-25T21:45:10.330Z,9.60
2017-07-25T21:47:37.618Z,9.50
2017-07-25T21:50:07.259Z,9.93
2017-07-25T21:52:33.922Z,11.73
2017-07-25T21:55:01.201Z,10.90
2017-07-25T21:57:27.843Z,11.77
2017-07-25T21:59:54.496Z,10.80
2017-07-25T22:02:26.924Z,11.87
2017-07-25T22:05:01.192Z,9.80
2017-07-25T22:07:29.157Z,11.40
2017-07-25T22:09:56.576Z,13.80
2017-07-25T22:12:23.210Z,11.33
2017-07-25T22:14:49.858Z,10.80
2017-07-25T22:17:16.506Z,10.40
2017-07-25T22:19:44.151Z,11.50
2017-07-25T22:22:11.179Z,12.10
2017-07-25T22:24:37.828Z,12.07
2017-07-25T22:27:04.447Z,13.80
2017-07-25T22:29:31.118Z,12.47
2017-07-25T22:31:57.769Z,12.80
2017-07-25T22:34:24.411Z,12.20
2017-07-25T22:36:51.051Z,10.60
2017-07-25T22:39:17.694Z,10.87
2017-07-25T22:41:44.357Z,11.30
2017-07-25T22:44:10.973Z,10.13
2017-07-25T22:46:37.623Z,10.70
2017-07-25T22:49:04.810Z,10.87
2017-07-25T22:51:31.460Z,11.00
2017-07-25T22:53:58.088Z,11.00
2017-07-25T22:56:24.736Z,10.77
2017-07-25T22:58:52.227Z,10.90
2017-07-25T23:01:18.867Z,13.23
2017-07-25T23:03:45.515Z,12.50
2017-07-25T23:06:12.155Z,14.00
2017-07-25T23:08:38.819Z,11.50
2017-07-25T23:11:05.474Z,12.80
2017-07-25T23:13:32.130Z,11.20
2017-07-25T23:15:58.790Z,13.00
2017-07-25T23:18:25.411Z,12.73
2017-07-25T23:20:52.072Z,12.67
2017-07-25T23:23:18.710Z,11.17
2017-07-25T23:25:45.346Z,13.53
2017-07-25T23:28:11.975Z,13.13
2017-07-25T23:30:38.614Z,13.20
2017-07-25T23:33:07.968Z,13.70
2017-07-25T23:35:34.603Z,13.67
2017-07-25T23:38:01.500Z,14.93
2017-07-25T23:40:28.136Z,13.93
2017-07-25T23:42:54.776Z,15.77
2017-07-25T23:45:21.416Z,13.57
2017-07-25T23:47:48.895Z,13.47
2017-07-25T23:50:15.540Z,14.20
2017-07-25T23:52:42.175Z,13.37
2017-07-25T23:55:10.790Z,13.40
2017-07-25T23:57:37.436Z,12.10
